createdAt,value
2019-01-19T00:02:45.876Z,19.50
2019-01-19T00:05:47.584Z,17.47
2019-01-19T00:08:47.251Z,19.23
2019-01-19T00:11:56.997Z,19.92
2019-01-19T00:14:33.872Z,18.13
2019-01-19T00:17:44.721Z,20.83
2019-01-19T00:20:50.431Z,20.37
2019-01-19T00:23:52.892Z,20.13
2019-01-19T00:26:51.035Z,17.37
2019-01-19T00:29:51.815Z,19.65
2019-01-19T00:32:50.873Z,18.87
2019-01-19T00:36:17.411Z,18.03
2019-01-19T00:39:39.333Z,18.07
2019-01-19T00:42:27.452Z,18.48
2019-01-19T00:45:37.376Z,19.67
2019-01-19T00:48:38.007Z,17.77
2019-01-19T00:51:39.873Z,17.73
2019-01-19T00:54:23.264Z,18.92
2019-01-19T00:57:30.375Z,20.72
2019-01-19T01:00:05.697Z,18.93
2019-01-19T01:03:18.829Z,18.87
2019-01-19T01:06:22.977Z,19.85
2019-01-19T01:09:17.497Z,18.80
2019-01-19T01:12:30.090Z,18.23
2019-01-19T01:15:19.871Z,16.93
2019-01-19T01:18:03.312Z,18.73
2019-01-19T01:21:07.396Z,17.20
2019-01-19T01:24:03.525Z,16.93
2019-01-19T01:27:08.037Z,16.60
2019-01-19T01:30:22.044Z,17.70
2019-01-19T01:33:04.284Z,18.30
2019-01-19T01:36:22.897Z,18.00
2019-01-19T01:39:14.365Z,16.77
2019-01-19T01:42:55.315Z,17.30
2019-01-19T01:45:58.003Z,16.60
2019-01-19T01:48:49.824Z,17.83
2019-01-19T01:51:53.855Z,17.42
2019-01-19T01:55:10.301Z,17.97
2019-01-19T01:58:10.113Z,17.03
2019-01-19T02:01:16.588Z,17.37
2019-01-19T02:04:17.248Z,16.90
2019-01-19T02:07:24.366Z,17.83
2019-01-19T02:10:13.152Z,18.17
2019-01-19T02:13:26.240Z,17.30
2019-01-19T02:16:43.103Z,17.43
2019-01-19T02:19:28.457Z,19.10
2019-01-19T02:22:12.792Z,17.77
2019-01-19T02:25:24.290Z,18.83
2019-01-19T02:28:20.355Z,18.73
2019-01-19T02:31:27.046Z,18.27
2019-01-19T02:34:59.657Z,17.90
2019-01-19T02:38:09.324Z,17.35
2019-01-19T02:41:02.274Z,18.93
2019-01-19T02:43:58.549Z,19.77
2019-01-19T02:46:50.284Z,17.77
2019-01-19T02:50:00.365Z,18.03
2019-01-19T02:52:58.786Z,17.83
2019-01-19T02:56:05.529Z,17.60
2019-01-19T02:59:15.314Z,17.63
2019-01-19T03:02:17.085Z,17.03
2019-01-19T03:05:12.610Z,16.57
2019-01-19T03:07:52.188Z,17.67
2019-01-19T03:11:11.905Z,18.00
2019-01-19T03:13:56.293Z,16.53
2019-01-19T03:16:57.965Z,18.27
2019-01-19T03:19:41.736Z,16.80
2019-01-19T03:22:30.010Z,17.80
2019-01-19T03:25:29.577Z,18.50
2019-01-19T03:28:19.708Z,18.53
2019-01-19T03:31:18.595Z,18.20
2019-01-19T03:34:20.317Z,18.97
2019-01-19T03:37:14.333Z,17.30
2019-01-19T03:40:09.813Z,17.63
2019-01-19T03:43:25.251Z,17.07
2019-01-19T03:46:14.836Z,16.27
2019-01-19T03:49:23.982Z,17.67
2019-01-19T03:52:16.580Z,16.77
2019-01-19T03:55:14.533Z,16.40
2019-01-19T03:57:54.173Z,15.30
2019-01-19T04:01:03.345Z,16.30
2019-01-19T04:03:53.501Z,16.27
2019-01-19T04:06:42.042Z,15.78
2019-01-19T04:09:48.460Z,18.27
2019-01-19T04:12:57.637Z,15.60
2019-01-19T04:15:48.324Z,14.60
2019-01-19T04:18:34.768Z,15.23
2019-01-19T04:21:44.611Z,15.15
2019-01-19T04:24:42.256Z,14.60
2019-01-19T04:27:11.920Z,14.07
2019-01-19T04:29:41.605Z,17.40
2019-01-19T04:32:11.418Z,14.73
2019-01-19T04:34:41.416Z,14.83
2019-01-19T04:37:11.253Z,13.38
2019-01-19T04:39:41.233Z,14.57
2019-01-19T04:42:11.661Z,15.33
2019-01-19T04:44:41.654Z,14.77
2019-01-19T04:47:11.599Z,15.48
2019-01-19T04:49:41.282Z,14.23
2019-01-19T04:52:10.942Z,14.77
2019-01-19T04:54:40.651Z,14.70
2019-01-19T04:57:10.562Z,13.50
2019-01-19T04:59:40.304Z,15.93
2019-01-19T05:02:10.055Z,15.33
2019-01-19T05:04:39.974Z,15.20
2019-01-19T05:07:09.912Z,16.15
2019-01-19T05:09:39.819Z,14.57
2019-01-19T05:12:09.734Z,13.40
2019-01-19T05:14:39.664Z,15.83
2019-01-19T05:17:09.634Z,15.18
2019-01-19T05:19:41.224Z,15.30
2019-01-19T05:22:10.915Z,16.27
2019-01-19T05:24:40.833Z,15.77
2019-01-19T05:27:10.504Z,14.67
2019-01-19T05:29:40.354Z,14.77
2019-01-19T05:32:11.538Z,15.55
2019-01-19T05:34:41.931Z,15.50
2019-01-19T05:37:11.625Z,15.98
2019-01-19T05:39:41.380Z,15.03
2019-01-19T05:42:11.041Z,14.78
2019-01-19T05:44:40.743Z,13.07
2019-01-19T05:47:10.667Z,13.20
2019-01-19T05:49:40.729Z,15.70
2019-01-19T05:52:10.502Z,13.77
2019-01-19T05:54:40.411Z,15.20
2019-01-19T05:57:10.332Z,14.15
2019-01-19T05:59:40.381Z,15.63
2019-01-19T06:02:11.396Z,14.33
2019-01-19T06:04:41.068Z,15.33
2019-01-19T06:07:10.755Z,15.10
2019-01-19T06:09:40.429Z,15.70
2019-01-19T06:12:10.417Z,15.32
2019-01-19T06:14:41.928Z,15.30
2019-01-19T06:17:11.785Z,14.83
2019-01-19T06:19:41.979Z,15.47
2019-01-19T06:22:12.068Z,14.68
2019-01-19T06:24:41.988Z,13.97
2019-01-19T06:27:11.818Z,15.10
2019-01-19T06:29:41.663Z,14.50
2019-01-19T06:32:11.686Z,14.18
2019-01-19T06:34:41.400Z,13.23
2019-01-19T06:37:11.162Z,13.78
2019-01-19T06:39:41.070Z,14.57
2019-01-19T06:42:10.814Z,14.43
2019-01-19T06:44:40.593Z,12.90
2019-01-19T06:47:10.442Z,14.53
2019-01-19T06:49:40.350Z,12.53
2019-01-19T06:52:11.118Z,12.93
2019-01-19T06:54:45.975Z,13.77
2019-01-19T06:57:21.461Z,13.57
2019-01-19T06:59:51.393Z,13.37
2019-01-19T07:02:21.601Z,13.40
2019-01-19T07:04:51.524Z,13.32
2019-01-19T07:07:21.282Z,13.67
2019-01-19T07:09:51.052Z,12.67
2019-01-19T07:12:20.946Z,13.20
2019-01-19T07:14:56.193Z,13.23
2019-01-19T07:17:28.621Z,14.53
2019-01-19T07:19:58.359Z,14.23
2019-01-19T07:22:28.286Z,14.80
2019-01-19T07:24:58.201Z,14.13
2019-01-19T07:27:28.177Z,15.30
2019-01-19T07:29:58.019Z,14.50
2019-01-19T07:32:27.933Z,13.17
2019-01-19T07:34:57.857Z,13.27
2019-01-19T07:37:27.770Z,14.30
2019-01-19T07:39:57.445Z,14.37
2019-01-19T07:42:27.130Z,14.37
2019-01-19T07:44:56.799Z,15.07
2019-01-19T07:47:26.974Z,14.57
2019-01-19T07:49:56.709Z,14.70
2019-01-19T07:52:27.561Z,13.80
2019-01-19T07:54:58.576Z,16.13
2019-01-19T07:57:31.374Z,16.23
2019-01-19T07:59:59.589Z,14.53
2019-01-19T08:02:29.263Z,15.63
2019-01-19T08:04:58.946Z,15.13
2019-01-19T08:07:28.636Z,14.30
2019-01-19T08:09:58.481Z,14.23
2019-01-19T08:12:28.166Z,15.47
2019-01-19T08:14:58.002Z,15.00
2019-01-19T08:17:27.927Z,15.47
2019-01-19T08:19:57.839Z,14.90
2019-01-19T08:22:27.748Z,13.77
2019-01-19T08:24:57.655Z,15.33
2019-01-19T08:27:27.649Z,15.00
2019-01-19T08:29:57.322Z,15.33
2019-01-19T08:32:27.103Z,16.50
2019-01-19T08:34:57.003Z,15.03
2019-01-19T08:37:27.001Z,15.33
2019-01-19T08:39:56.839Z,15.13
2019-01-19T08:42:26.750Z,14.80
2019-01-19T08:44:57.042Z,15.80
2019-01-19T08:47:26.877Z,14.67
2019-01-19T08:49:56.789Z,15.10
2019-01-19T08:52:26.724Z,14.03
2019-01-19T08:54:57.229Z,15.97
2019-01-19T08:57:27.153Z,15.00
2019-01-19T08:59:56.826Z,15.83
2019-01-19T09:02:26.826Z,14.40
2019-01-19T09:04:56.664Z,13.77
2019-01-19T09:07:33.486Z,15.97
2019-01-19T09:09:57.944Z,14.83
2019-01-19T09:12:27.856Z,14.40
2019-01-19T09:14:57.769Z,14.70
2019-01-19T09:17:28.059Z,15.40
2019-01-19T09:19:57.924Z,14.20
2019-01-19T09:22:27.825Z,14.63
2019-01-19T09:24:57.872Z,13.73
2019-01-19T09:27:27.653Z,13.00
2019-01-19T09:29:57.554Z,13.77
2019-01-19T09:32:28.248Z,13.23
2019-01-19T09:34:58.380Z,14.13
2019-01-19T09:37:28.052Z,12.60
2019-01-19T09:39:57.906Z,12.57
2019-01-19T09:42:27.818Z,14.23
2019-01-19T09:44:57.648Z,13.50
2019-01-19T09:47:28.271Z,14.00
2019-01-19T09:50:12.921Z,11.77
2019-01-19T09:55:36.029Z,13.37
2019-01-19T09:58:06.016Z,11.97
2019-01-19T10:00:37.840Z,11.73
2019-01-19T10:03:07.608Z,18.73
2019-01-19T10:05:37.281Z,15.47
2019-01-19T10:08:06.948Z,11.67
2019-01-19T10:10:36.720Z,11.57
2019-01-19T10:13:06.469Z,11.73
2019-01-19T10:15:36.558Z,11.40
2019-01-19T10:18:06.505Z,11.10
2019-01-19T10:20:50.389Z,11.37
2019-01-19T10:23:20.106Z,14.07
2019-01-19T10:25:49.721Z,19.17
2019-01-19T10:28:19.624Z,9.70
2019-01-19T10:30:49.292Z,10.07
2019-01-19T10:33:24.194Z,11.07
2019-01-19T10:35:59.510Z,10.20
2019-01-19T10:38:30.597Z,10.67
2019-01-19T10:41:00.568Z,10.87
2019-01-19T10:43:30.244Z,10.30
2019-01-19T10:46:00.161Z,27.77
2019-01-19T10:48:30.026Z,13.23
2019-01-19T10:50:59.906Z,8.30
2019-01-19T10:53:29.836Z,8.73
2019-01-19T10:55:59.721Z,7.77
2019-01-19T10:58:29.381Z,8.30
2019-01-19T11:00:59.384Z,8.10
2019-01-19T11:03:28.997Z,8.90
2019-01-19T11:05:58.670Z,9.60
2019-01-19T11:08:29.012Z,10.00
2019-01-19T11:10:58.918Z,7.63
2019-01-19T11:13:28.579Z,9.37
2019-01-19T11:15:58.257Z,19.30
2019-01-19T11:18:28.036Z,11.07
2019-01-19T11:20:57.956Z,9.53
2019-01-19T11:23:27.700Z,10.87
2019-01-19T11:25:57.584Z,8.23
2019-01-19T11:28:27.257Z,45.87
2019-01-19T11:30:56.997Z,59.43
2019-01-19T11:33:26.660Z,10.10
2019-01-19T11:35:56.410Z,7.57
2019-01-19T11:38:26.499Z,6.83
2019-01-19T11:40:56.414Z,7.37
2019-01-19T11:43:26.342Z,7.53
2019-01-19T11:45:57.105Z,9.60
2019-01-19T11:48:27.012Z,10.20
2019-01-19T11:50:56.919Z,8.80
2019-01-19T11:53:27.153Z,9.43
2019-01-19T11:55:57.063Z,9.33
2019-01-19T11:58:26.980Z,7.10
2019-01-19T12:00:56.954Z,8.60
2019-01-19T12:03:26.770Z,8.77
2019-01-19T12:05:56.688Z,10.23
2019-01-19T12:08:26.619Z,6.03
2019-01-19T12:10:56.535Z,6.57
2019-01-19T12:13:26.695Z,7.30
2019-01-19T12:15:56.903Z,8.33
2019-01-19T12:18:26.583Z,6.83
2019-01-19T12:20:56.246Z,7.50
2019-01-19T12:23:25.899Z,7.60
2019-01-19T12:25:55.783Z,6.40
2019-01-19T12:28:25.618Z,8.57
2019-01-19T12:30:55.539Z,6.83
2019-01-19T12:33:25.530Z,7.00
2019-01-19T12:35:55.359Z,6.93
2019-01-19T12:38:26.885Z,10.05
2019-01-19T12:40:56.791Z,6.70
2019-01-19T12:43:26.453Z,6.23
2019-01-19T12:45:58.638Z,5.83
2019-01-19T12:48:28.577Z,13.77
2019-01-19T12:50:58.666Z,9.77
2019-01-19T12:53:28.528Z,7.90
2019-01-19T12:55:58.363Z,6.90
2019-01-19T12:58:28.106Z,7.67
2019-01-19T13:00:57.839Z,6.20
2019-01-19T13:03:27.586Z,7.33
2019-01-19T13:06:31.518Z,7.40
2019-01-19T13:09:04.043Z,8.17
2019-01-19T13:11:54.744Z,9.10
2019-01-19T13:14:25.091Z,6.60
2019-01-19T13:17:14.243Z,8.30
2019-01-19T13:20:12.066Z,8.03
2019-01-19T13:23:09.594Z,7.83
2019-01-19T13:26:20.388Z,19.77
2019-01-19T13:29:23.446Z,10.80
2019-01-19T13:32:10.079Z,8.13
2019-01-19T13:35:22.427Z,10.93
2019-01-19T13:38:29.617Z,12.47
2019-01-19T13:41:22.871Z,9.57
2019-01-19T13:44:12.644Z,8.50
2019-01-19T13:47:25.230Z,9.18
2019-01-19T13:50:26.385Z,8.03
2019-01-19T13:53:19.063Z,7.90
2019-01-19T13:56:19.194Z,7.47
2019-01-19T13:59:05.269Z,8.00
2019-01-19T14:02:00.290Z,7.73
2019-01-19T14:05:12.835Z,7.37
2019-01-19T14:08:15.534Z,7.50
2019-01-19T14:11:07.151Z,8.20
2019-01-19T14:14:01.946Z,8.43
2019-01-19T14:17:00.025Z,16.07
2019-01-19T14:20:23.005Z,10.07
2019-01-19T14:23:27.701Z,8.60
2019-01-19T14:26:29.355Z,8.80
2019-01-19T14:29:14.955Z,8.43
2019-01-19T14:32:04.149Z,7.87
2019-01-19T14:34:54.820Z,7.83
2019-01-19T14:38:07.062Z,8.10
2019-01-19T14:41:10.870Z,6.87
2019-01-19T14:44:30.482Z,7.20
2019-01-19T14:47:25.045Z,6.60
2019-01-19T14:50:27.627Z,6.63
2019-01-19T14:53:38.783Z,7.27
2019-01-19T14:56:26.227Z,6.70
2019-01-19T14:59:26.970Z,7.97
2019-01-19T15:02:44.399Z,7.97
2019-01-19T15:05:54.451Z,7.17
2019-01-19T15:08:35.434Z,6.70
2019-01-19T15:11:28.401Z,6.20
2019-01-19T15:14:33.870Z,6.70
2019-01-19T15:17:40.779Z,6.43
2019-01-19T15:20:32.248Z,6.57
2019-01-19T15:23:41.956Z,7.03
2019-01-19T15:26:28.447Z,6.33
2019-01-19T15:30:00.016Z,6.73
2019-01-19T15:33:23.036Z,6.80
2019-01-19T15:36:24.616Z,8.07
2019-01-19T15:39:15.879Z,9.57
2019-01-19T15:42:13.437Z,24.13
2019-01-19T15:45:08.556Z,12.90
2019-01-19T15:48:03.304Z,9.63
2019-01-19T15:50:59.230Z,8.07
2019-01-19T15:53:38.273Z,10.37
2019-01-19T15:56:41.688Z,11.60
2019-01-19T15:59:57.867Z,9.38
2019-01-19T16:02:55.848Z,8.33
2019-01-19T16:05:51.305Z,8.20
2019-01-19T16:08:57.538Z,7.83
2019-01-19T16:11:52.172Z,7.60
2019-01-19T16:14:57.595Z,8.23
2019-01-19T16:17:50.479Z,8.77
2019-01-19T16:21:31.446Z,8.53
2019-01-19T16:24:38.361Z,9.33
2019-01-19T16:27:39.776Z,10.37
2019-01-19T16:30:39.732Z,9.38
2019-01-19T16:33:53.653Z,8.78
2019-01-19T16:37:16.960Z,11.07
2019-01-19T16:40:06.549Z,11.07
2019-01-19T16:43:09.459Z,9.63
2019-01-19T16:45:51.484Z,11.87
2019-01-19T16:48:40.159Z,8.40
2019-01-19T16:51:45.440Z,8.60
2019-01-19T16:54:53.967Z,9.47
2019-01-19T16:57:47.476Z,9.87
2019-01-19T17:01:03.677Z,9.20
2019-01-19T17:04:14.524Z,9.33
2019-01-19T17:07:27.105Z,8.53
2019-01-19T17:10:15.675Z,8.20
2019-01-19T17:13:11.951Z,8.50
2019-01-19T17:16:09.504Z,8.00
2019-01-19T17:18:58.315Z,8.33
2019-01-19T17:22:21.691Z,8.63
2019-01-19T17:25:36.954Z,9.13
2019-01-19T17:28:37.156Z,9.47
2019-01-19T17:31:24.604Z,10.40
2019-01-19T17:34:20.852Z,9.30
2019-01-19T17:37:42.076Z,10.47
2019-01-19T17:40:44.995Z,10.87
2019-01-19T17:43:35.883Z,10.57
2019-01-19T17:46:52.212Z,10.37
2019-01-19T17:50:03.112Z,10.00
2019-01-19T17:53:11.312Z,9.97
2019-01-19T17:56:29.528Z,9.70
2019-01-19T17:59:35.375Z,9.63
2019-01-19T18:02:24.097Z,9.73
2019-01-19T18:05:29.424Z,10.53
2019-01-19T18:08:21.285Z,11.07
2019-01-19T18:11:32.963Z,12.23
2019-01-19T18:14:28.146Z,12.27
2019-01-19T18:17:39.771Z,10.33
2019-01-19T18:20:22.864Z,11.68
2019-01-19T18:23:26.691Z,12.55
2019-01-19T18:26:34.580Z,9.87
2019-01-19T18:29:50.783Z,9.53
2019-01-19T18:32:29.211Z,10.00
2019-01-19T18:35:15.932Z,10.47
2019-01-19T18:38:14.917Z,10.93
2019-01-19T18:41:20.333Z,10.50
2019-01-19T18:44:33.520Z,10.50
2019-01-19T18:47:31.175Z,11.38
2019-01-19T18:50:29.174Z,10.77
2019-01-19T18:53:34.657Z,10.60
2019-01-19T18:56:50.164Z,10.57
2019-01-19T19:00:13.987Z,11.27
2019-01-19T19:03:26.028Z,11.73
2019-01-19T19:06:43.646Z,13.03
2019-01-19T19:09:39.101Z,13.00
2019-01-19T19:12:18.546Z,12.53
2019-01-19T19:15:44.893Z,13.30
2019-01-19T19:18:59.436Z,12.20
2019-01-19T19:22:07.210Z,13.50
2019-01-19T19:25:23.834Z,12.13
2019-01-19T19:28:45.401Z,13.40
2019-01-19T19:31:47.989Z,11.40
2019-01-19T19:35:08.513Z,12.60
2019-01-19T19:38:20.724Z,11.03
2019-01-19T19:41:20.354Z,11.67
2019-01-19T19:44:24.469Z,11.53
2019-01-19T19:47:26.829Z,13.37
2019-01-19T19:50:34.457Z,11.63
2019-01-19T19:53:05.188Z,11.22
2019-01-19T19:55:33.486Z,11.73
2019-01-19T19:58:03.357Z,11.20
2019-01-19T20:00:33.240Z,11.67
2019-01-19T20:03:03.478Z,12.37
2019-01-19T20:05:33.456Z,13.57
2019-01-19T20:08:04.080Z,11.73
2019-01-19T20:10:54.868Z,12.20
2019-01-19T20:13:24.939Z,13.30
2019-01-19T20:15:55.469Z,12.40
2019-01-19T20:18:25.444Z,11.90
2019-01-19T20:20:55.289Z,11.07
2019-01-19T20:23:25.195Z,11.77
2019-01-19T20:25:55.119Z,13.33
2019-01-19T20:28:25.020Z,10.77
2019-01-19T20:30:55.169Z,11.60
2019-01-19T20:33:24.890Z,11.30
2019-01-19T20:35:54.847Z,11.20
2019-01-19T20:38:25.453Z,11.80
2019-01-19T20:40:56.142Z,11.07
2019-01-19T20:43:26.055Z,10.83
2019-01-19T20:45:55.969Z,10.53
2019-01-19T20:48:26.155Z,10.10
2019-01-19T20:50:56.161Z,11.20
2019-01-19T20:53:26.010Z,10.67
2019-01-19T20:55:55.917Z,12.07
2019-01-19T20:58:26.832Z,11.27
2019-01-19T21:00:57.298Z,10.43
2019-01-19T21:03:27.209Z,10.37
2019-01-19T21:05:57.109Z,9.87
2019-01-19T21:08:27.029Z,10.00
2019-01-19T21:10:56.948Z,10.77
2019-01-19T21:13:26.853Z,10.60
2019-01-19T21:15:56.778Z,10.37
2019-01-19T21:18:27.233Z,10.50
2019-01-19T21:20:57.218Z,10.10
2019-01-19T21:23:27.116Z,9.37
2019-01-19T21:25:57.045Z,10.03
2019-01-19T21:28:26.946Z,12.23
2019-01-19T21:30:56.873Z,12.00
2019-01-19T21:33:26.850Z,11.73
2019-01-19T21:35:56.717Z,11.47
2019-01-19T21:38:27.218Z,11.93
2019-01-19T21:40:57.133Z,9.83
2019-01-19T21:43:27.047Z,10.30
2019-01-19T21:45:56.967Z,9.27
2019-01-19T21:48:26.872Z,9.80
2019-01-19T21:50:56.863Z,9.60
2019-01-19T21:53:26.711Z,9.00
2019-01-19T21:55:57.235Z,9.90
2019-01-19T21:58:27.134Z,9.40
2019-01-19T22:00:57.135Z,10.57
2019-01-19T22:03:26.973Z,10.87
2019-01-19T22:05:56.926Z,9.60
2019-01-19T22:08:27.715Z,9.67
2019-01-19T22:10:57.640Z,9.23
2019-01-19T22:13:27.846Z,9.00
2019-01-19T22:15:58.055Z,8.90
2019-01-19T22:18:27.980Z,8.83
2019-01-19T22:20:57.897Z,9.20
2019-01-19T22:23:27.809Z,8.60
2019-01-19T22:25:57.729Z,8.77
2019-01-19T22:28:27.635Z,8.83
2019-01-19T22:30:58.479Z,9.00
2019-01-19T22:33:28.393Z,8.90
2019-01-19T22:35:58.312Z,9.43
2019-01-19T22:38:28.224Z,9.90
2019-01-19T22:40:58.128Z,11.22
2019-01-19T22:43:30.846Z,9.87
2019-01-19T22:46:00.956Z,10.20
2019-01-19T22:48:30.969Z,10.93
2019-01-19T22:51:00.945Z,10.30
2019-01-19T22:53:30.619Z,10.67
2019-01-19T22:56:00.296Z,10.47
2019-01-19T22:58:30.376Z,10.43
2019-01-19T23:01:25.189Z,10.50
2019-01-19T23:03:55.077Z,10.60
2019-01-19T23:06:24.924Z,9.77
2019-01-19T23:08:54.907Z,10.47
2019-01-19T23:11:25.750Z,10.00
2019-01-19T23:13:55.588Z,9.97
2019-01-19T23:16:26.429Z,9.83
2019-01-19T23:18:56.412Z,9.50
2019-01-19T23:21:26.248Z,11.03
2019-01-19T23:23:56.151Z,10.47
2019-01-19T23:26:26.069Z,11.23
2019-01-19T23:28:55.985Z,12.00
2019-01-19T23:31:25.893Z,11.33
2019-01-19T23:33:55.819Z,10.20
2019-01-19T23:36:26.346Z,9.67
2019-01-19T23:38:56.262Z,10.83
2019-01-19T23:41:26.171Z,9.43
2019-01-19T23:43:56.919Z,10.20
2019-01-19T23:46:26.840Z,9.83
2019-01-19T23:48:57.199Z,8.90
2019-01-19T23:51:27.388Z,10.27
2019-01-19T23:53:58.502Z,9.37
2019-01-19T23:56:28.496Z,10.00
2019-01-19T23:58:58.330Z,9.47
